Time;durP1;ratioP1;P1;durP2;ratioP2;P2;SDS_P1;SDS_P2;PMS_P1;PMS_P2;Temp;Humidity;BMP_temperature;BMP_pressure;BME280_temperature;BME280_humidity;BME280_pressure;Samples;Min_cycle;Max_cycle;Signal;HPM_P1;HPM_P2
2022/06/29 00:00:26;;;;;;;15.30;11.88;;;;;;;20.21;80.97;98868.34;1665463;86;27451;-57
2022/06/29 00:02:54;;;;;;;13.20;11.78;;;;;;;20.10;81.06;98868.17;1665017;86;25441;-57
2022/06/29 00:05:24;;;;;;;14.98;11.70;;;;;;;19.94;81.19;98862.12;1665267;86;25527;-57
2022/06/29 00:07:52;;;;;;;;;;;;;;;19.87;81.50;98863.41;1668099;85;25738;-57
2022/06/29 00:10:19;;;;;;;13.20;11.80;;;;;;;19.81;81.58;98862.89;1665548;86;25472;-57
2022/06/29 00:12:47;;;;;;;12.33;11.03;;;;;;;19.81;82.08;98867.06;1665502;85;27456;-56
2022/06/29 00:15:15;;;;;;;16.27;12.05;;;;;;;19.88;82.02;98860.84;1665236;86;25615;-56
2022/06/29 00:17:42;;;;;;;15.05;12.13;;;;;;;19.91;82.13;98857.31;1665453;85;25697;-57
2022/06/29 00:20:10;;;;;;;14.20;11.73;;;;;;;19.98;81.79;98855.24;1665418;86;26291;-57
2022/06/29 00:22:38;;;;;;;13.55;11.50;;;;;;;19.98;81.37;98853.04;1665478;86;25436;-56
2022/06/29 00:25:06;;;;;;;13.72;11.68;;;;;;;19.91;81.55;98845.38;1665215;85;28522;-56
2022/06/29 00:27:32;;;;;;;12.43;11.10;;;;;;;19.89;81.64;98849.13;1665280;85;26045;-57
2022/06/29 00:30:00;;;;;;;13.30;11.63;;;;;;;19.86;81.59;98852.05;1641957;86;25696;-56
2022/06/29 00:32:26;;;;;;;12.50;11.20;;;;;;;19.81;81.48;98852.38;1665345;85;25897;-56
2022/06/29 00:34:52;;;;;;;13.68;11.03;;;;;;;19.68;81.66;98860.09;1665426;85;25689;-56
2022/06/29 00:37:19;;;;;;;12.88;11.35;;;;;;;19.62;81.92;98857.41;1665437;86;27377;-56
2022/06/29 00:39:45;;;;;;;13.88;11.00;;;;;;;19.52;82.53;98850.50;1665253;86;25928;-56
2022/06/29 00:42:11;;;;;;;15.80;11.95;;;;;;;19.47;82.67;98850.80;1665501;86;25470;-56
2022/06/29 00:44:37;;;;;;;15.28;12.03;;;;;;;19.47;82.83;98844.66;1665366;86;25769;-56
2022/06/29 00:47:05;;;;;;;14.70;10.45;;;;;;;19.40;83.19;98831.42;1665426;86;25780;-56
2022/06/29 00:49:33;;;;;;;13.90;10.93;;;;;;;19.26;84.20;98807.56;1665489;86;27341;-56
2022/06/29 00:52:10;;;;;;;11.78;10.18;;;;;;;19.15;84.92;98799.03;1665664;85;25741;-57
2022/06/29 00:54:47;;;;;;;12.82;11.28;;;;;;;19.08;85.65;98794.13;1665487;86;25548;-56
2022/06/29 00:57:20;;;;;;;13.32;11.80;;;;;;;19.01;85.57;98796.75;1665498;85;25737;-56
2022/06/29 00:59:53;;;;;;;14.95;11.57;;;;;;;19.00;85.42;98789.00;1665608;85;25465;-57
2022/06/29 01:02:23;;;;;;;14.65;12.33;;;;;;;19.03;85.29;98793.81;1665552;86;27486;-56
2022/06/29 01:04:51;;;;;;;14.73;12.95;;;;;;;19.06;85.20;98801.41;1665531;86;25921;-57
2022/06/29 01:07:26;;;;;;;16.27;13.03;;;;;;;19.06;85.39;98797.25;1665225;86;25602;-57
2022/06/29 01:09:53;;;;;;;15.08;12.28;;;;;;;19.08;85.42;98805.24;1664511;86;25790;-57
2022/06/29 01:12:20;;;;;;;13.75;12.20;;;;;;;19.08;85.30;98807.20;1665062;86;25762;-58
2022/06/29 01:14:49;;;;;;;13.88;12.43;;;;;;;19.12;85.26;98809.48;1665331;86;27470;-57
2022/06/29 01:17:16;;;;;;;16.42;12.58;;;;;;;19.22;84.99;98810.84;1665353;86;25632;-57
2022/06/29 01:19:43;;;;;;;15.63;13.22;;;;;;;19.24;84.71;98804.34;1665428;85;25642;-57
2022/06/29 01:22:16;;;;;;;14.45;12.40;;;;;;;19.21;84.82;98802.30;1665272;86;25786;-57
2022/06/29 01:24:44;;;;;;;17.12;13.00;;;;;;;19.18;84.70;98799.69;1665110;86;25722;-57
2022/06/29 01:27:25;;;;;;;15.93;12.58;;;;;;;19.17;85.05;98805.03;1665142;86;27699;-57
2022/06/29 01:29:58;;;;;;;14.03;11.73;;;;;;;19.12;85.28;98801.16;1665506;86;25732;-58
2022/06/29 01:32:33;;;;;;;16.00;12.90;;;;;;;19.05;85.76;98790.09;1665474;85;26005;-57
2022/06/29 01:35:22;;;;;;;15.00;12.30;;;;;;;19.00;85.58;98780.67;1665529;85;25778;-57
2022/06/29 01:37:51;;;;;;;14.38;12.85;;;;;;;18.98;85.71;98778.05;1664761;86;25703;-57
2022/06/29 01:40:24;;;;;;;14.20;12.60;;;;;;;19.00;85.77;98793.16;1665067;86;27446;-57
2022/06/29 01:42:50;;;;;;;18.15;13.15;;;;;;;19.02;85.58;98783.89;1665427;86;26066;-56
2022/06/29 01:45:16;;;;;;;17.37;13.55;;;;;;;19.12;85.57;98790.05;1665437;85;25669;-57
2022/06/29 01:47:41;;;;;;;14.83;13.20;;;;;;;19.14;85.30;98786.33;1665428;85;25766;-57
2022/06/29 01:50:09;;;;;;;17.62;13.48;;;;;;;19.10;85.51;98785.43;1665458;85;25667;-57
2022/06/29 01:52:35;;;;;;;16.57;14.05;;;;;;;19.06;85.75;98777.02;1665438;85;27461;-57
2022/06/29 01:55:01;;;;;;;14.90;12.53;;;;;;;19.05;85.74;98774.02;1665232;86;25991;-57
2022/06/29 01:57:28;;;;;;;17.32;13.35;;;;;;;19.07;85.83;98778.62;1665388;86;25749;-57
2022/06/29 01:59:54;;;;;;;16.67;13.88;;;;;;;19.01;85.91;98773.96;1665270;86;25610;-57
2022/06/29 02:02:20;;;;;;;16.05;13.32;;;;;;;19.01;86.01;98777.31;1665481;86;25466;-57
2022/06/29 02:04:46;;;;;;;14.68;12.00;;;;;;;19.01;86.05;98777.31;1665064;86;27380;-56
2022/06/29 02:07:12;;;;;;;18.40;14.40;;;;;;;19.00;86.56;98770.95;1665354;86;25725;-56
2022/06/29 02:09:38;;;;;;;14.23;12.65;;;;;;;19.01;86.35;98767.59;1665338;86;25751;-57
2022/06/29 02:12:05;;;;;;;18.32;13.95;;;;;;;19.03;86.69;98768.04;1665410;85;25712;-57
2022/06/29 02:14:31;;;;;;;17.57;12.23;;;;;;;19.00;86.76;98768.17;1665093;86;25501;-57
2022/06/29 02:16:57;;;;;;;13.95;12.45;;;;;;;18.98;87.02;98772.49;1665376;86;27607;-57
2022/06/29 02:19:23;;;;;;;15.95;12.03;;;;;;;18.98;86.91;98766.94;1665398;86;25461;-57
2022/06/29 02:21:49;;;;;;;17.67;12.85;;;;;;;18.98;87.07;98760.81;1665331;86;25802;-57
2022/06/29 02:24:15;;;;;;;15.83;13.53;;;;;;;18.95;87.23;98755.99;1665416;86;25814;-56
2022/06/29 02:26:42;;;;;;;12.37;9.60;;;;;;;18.94;86.98;98751.02;1665207;86;25460;-57
2022/06/29 02:29:08;;;;;;;16.97;12.65;;;;;;;18.93;87.46;98745.83;1665420;86;27454;-56
2022/06/29 02:37:03;;;;;;;13.10;11.30;;;;;;;18.91;87.70;98733.70;1676351;85;25685;-57
2022/06/29 02:39:29;;;;;;;15.20;12.40;;;;;;;18.93;87.38;98729.98;1676777;85;25611;-57
2022/06/29 02:41:55;;;;;;;14.63;10.90;;;;;;;18.91;87.57;98726.76;1676913;85;27460;-57
2022/06/29 02:44:21;;;;;;;15.60;11.55;;;;;;;18.91;87.45;98721.81;1676376;85;27144;-57
2022/06/29 02:46:47;;;;;;;15.25;12.18;;;;;;;18.92;87.59;98715.08;1677172;85;25729;-57
2022/06/29 02:49:13;;;;;;;12.13;10.28;;;;;;;18.90;87.48;98709.89;1676386;85;25846;-57
2022/06/29 02:51:39;;;;;;;14.43;11.75;;;;;;;18.88;87.97;98708.66;1676836;85;25735;-57
2022/06/29 02:54:05;;;;;;;12.93;9.93;;;;;;;18.85;88.13;98707.41;1676735;85;28235;-57
2022/06/29 02:56:31;;;;;;;14.75;12.50;;;;;;;18.81;88.53;98699.03;1676748;85;25499;-57
2022/06/29 02:58:57;;;;;;;15.68;12.70;;;;;;;18.79;88.53;98695.00;1677197;85;25609;-56
2022/06/29 03:01:23;;;;;;;16.67;13.18;;;;;;;18.78;88.54;98694.22;1676971;85;25745;-56
2022/06/29 03:03:49;;;;;;;16.55;13.05;;;;;;;18.79;88.15;98696.39;1676859;85;25622;-57
2022/06/29 03:06:15;;;;;;;17.10;13.98;;;;;;;18.85;88.25;98695.52;1676951;85;27503;-57
2022/06/29 03:08:42;;;;;;;16.30;12.25;;;;;;;18.87;88.00;98689.00;1676595;85;25793;-57
2022/06/29 03:11:08;;;;;;;16.73;12.82;;;;;;;18.88;88.06;98691.41;1676939;85;25649;-57
2022/06/29 03:13:34;;;;;;;13.80;11.85;;;;;;;18.90;88.09;98693.81;1676528;85;25754;-56
2022/06/29 03:16:00;;;;;;;13.20;11.10;;;;;;;18.89;88.00;98690.25;1677063;85;25671;-57
2022/06/29 03:18:26;;;;;;;14.13;11.18;;;;;;;18.90;88.01;98681.31;1676879;85;27465;-57
2022/06/29 03:20:53;;;;;;;14.83;10.03;;;;;;;18.91;88.09;98689.88;1676627;85;25774;-56
2022/06/29 03:23:19;;;;;;;14.68;10.95;;;;;;;18.92;88.19;98690.09;1676594;85;25550;-57
2022/06/29 03:25:45;;;;;;;15.60;11.73;;;;;;;18.96;87.95;98688.17;1677078;85;25850;-57
2022/06/29 03:28:12;;;;;;;14.58;11.25;;;;;;;19.02;87.83;98688.08;1676858;85;25637;-57
2022/06/29 03:30:38;;;;;;;13.03;10.20;;;;;;;19.10;87.61;98693.20;1676945;85;27457;-57
2022/06/29 03:33:04;;;;;;;11.97;10.68;;;;;;;19.12;87.64;98685.31;1676912;85;25587;-57
2022/06/29 03:35:30;;;;;;;12.30;10.38;;;;;;;19.16;87.46;98684.78;1668151;85;25808;-56
2022/06/29 03:37:56;;;;;;;12.33;10.23;;;;;;;19.24;87.27;98691.83;1665618;86;25716;-57
2022/06/29 03:40:23;;;;;;;12.23;10.05;;;;;;;19.29;86.97;98699.26;1665499;86;25703;-56
2022/06/29 03:42:49;;;;;;;13.40;11.10;;;;;;;19.30;86.81;98700.88;1665415;86;28495;-57
2022/06/29 03:45:15;;;;;;;14.78;11.45;;;;;;;19.31;86.90;98707.22;1665495;86;25622;-57
2022/06/29 03:47:42;;;;;;;13.32;11.83;;;;;;;19.39;86.83;98712.31;1665277;86;25428;-57
2022/06/29 03:50:10;;;;;;;16.20;11.05;;;;;;;19.43;86.20;98715.36;1665315;86;25786;-56
2022/06/29 03:52:36;;;;;;;11.08;8.90;;;;;;;19.44;86.55;98710.62;1665635;85;25451;-57
2022/06/29 03:55:04;;;;;;;15.70;12.73;;;;;;;19.45;86.19;98709.44;1665389;86;28269;-57
2022/06/29 03:57:30;;;;;;;19.82;12.55;;;;;;;19.49;86.09;98720.62;1665422;86;25444;-57
2022/06/29 03:59:56;;;;;;;15.28;11.33;;;;;;;19.45;85.97;98711.43;1665542;85;25700;-57
2022/06/29 04:02:22;;;;;;;15.83;12.30;;;;;;;19.45;86.05;98709.44;1665133;86;25805;-57
2022/06/29 04:04:48;;;;;;;16.25;12.70;;;;;;;19.45;86.10;98714.99;1665529;85;25717;-57
2022/06/29 04:07:14;;;;;;;15.60;12.18;;;;;;;19.44;85.99;98725.91;1665356;86;27398;-57
2022/06/29 04:09:40;;;;;;;13.48;11.53;;;;;;;19.48;85.92;98733.70;1665363;86;25738;-57
2022/06/29 04:12:07;;;;;;;18.73;11.55;;;;;;;19.55;85.78;98721.91;1665595;86;25647;-57
2022/06/29 04:14:33;;;;;;;14.83;12.30;;;;;;;19.65;85.57;98719.87;1665488;85;25716;-57
2022/06/29 04:17:00;;;;;;;14.00;12.00;;;;;;;19.72;85.31;98720.58;1665412;86;25638;-57
2022/06/29 04:19:27;;;;;;;15.40;12.03;;;;;;;19.79;85.23;98714.30;1665447;86;27517;-57
2022/06/29 04:21:54;;;;;;;16.48;11.68;;;;;;;19.88;85.28;98705.69;1665362;86;25808;-57
2022/06/29 04:24:22;;;;;;;16.00;11.45;;;;;;;19.97;84.63;98706.21;1665412;85;25523;-57
2022/06/29 04:26:49;;;;;;;13.53;11.43;;;;;;;20.01;84.51;98704.30;1665274;86;25728;-57
2022/06/29 04:29:16;;;;;;;14.45;11.85;;;;;;;20.12;84.17;98706.45;1665603;85;25785;-57
2022/06/29 04:31:42;;;;;;;13.30;11.08;;;;;;;20.18;83.60;98704.33;1665313;86;27425;-57
2022/06/29 04:34:08;;;;;;;13.30;11.48;;;;;;;20.19;83.59;98700.97;1665379;85;25692;-57
2022/06/29 04:36:35;;;;;;;14.63;10.28;;;;;;;20.24;83.45;98692.30;1665071;86;25652;-57
2022/06/29 04:39:01;;;;;;;13.95;10.55;;;;;;;20.26;83.15;98686.36;1665725;85;25755;-57
2022/06/29 04:41:27;;;;;;;12.73;9.80;;;;;;;20.36;83.19;98683.47;1665202;86;25437;-57
2022/06/29 04:43:53;;;;;;;14.03;11.00;;;;;;;20.42;82.55;98687.52;1665564;86;27428;-57
2022/06/29 04:46:19;;;;;;;15.68;11.78;;;;;;;20.49;82.72;98677.85;1664993;86;25650;-57
2022/06/29 04:48:47;;;;;;;12.73;10.90;;;;;;;20.54;82.21;98674.73;1665547;86;25777;-56
2022/06/29 04:51:15;;;;;;;20.35;10.82;;;;;;;20.61;82.30;98674.00;1665323;86;25765;-57
2022/06/29 04:53:44;;;;;;;11.53;9.90;;;;;;;20.66;81.61;98667.28;1665315;86;25694;-57
2022/06/29 04:56:12;;;;;;;11.63;10.28;;;;;;;20.66;81.85;98676.45;1664999;86;27351;-57
2022/06/29 04:58:38;;;;;;;12.85;9.55;;;;;;;20.79;81.86;98666.43;1665208;86;25476;-56
2022/06/29 05:01:06;;;;;;;12.18;10.50;;;;;;;20.92;80.88;98673.34;1665311;86;25658;-57
2022/06/29 05:03:32;;;;;;;13.75;10.43;;;;;;;21.01;81.12;98682.77;1665302;86;25698;-57
2022/06/29 05:05:58;;;;;;;11.65;10.10;;;;;;;21.16;80.91;98689.27;1665429;86;25669;-58
2022/06/29 05:08:24;;;;;;;11.57;10.35;;;;;;;21.35;80.03;98687.42;1665602;85;27422;-58
2022/06/29 05:10:51;;;;;;;11.60;9.90;;;;;;;21.50;79.99;98684.76;1665370;85;25781;-59
2022/06/29 05:13:18;;;;;;;11.57;9.50;;;;;;;21.58;79.38;98685.00;1665117;85;25737;-58
2022/06/29 05:15:45;;;;;;;13.25;10.40;;;;;;;21.56;78.44;98681.20;1665207;86;25626;-59
2022/06/29 05:18:12;;;;;;;10.58;9.43;;;;;;;21.54;78.84;98673.03;1665463;86;25489;-58
2022/06/29 05:20:38;;;;;;;11.48;9.70;;;;;;;21.64;78.37;98677.87;1665167;86;29596;-60
2022/06/29 05:23:05;;;;;;;14.50;9.65;;;;;;;21.76;78.43;98678.16;1665350;86;25865;-59
2022/06/29 05:25:32;;;;;;;17.55;9.40;;;;;;;21.86;78.29;98677.22;1665082;85;25509;-58
2022/06/29 05:27:59;;;;;;;13.78;9.63;;;;;;;21.98;77.95;98675.50;1665054;86;25816;-59
2022/06/29 05:30:26;;;;;;;12.47;9.70;;;;;;;22.15;77.06;98682.94;1665326;86;25690;-59
2022/06/29 05:32:52;;;;;;;11.20;9.50;;;;;;;22.17;76.50;98677.16;1665189;86;27707;-58
2022/06/29 05:35:19;;;;;;;11.43;9.93;;;;;;;22.26;76.33;98675.42;1665150;85;25447;-58
2022/06/29 05:37:46;;;;;;;10.68;9.35;;;;;;;22.27;76.00;98669.23;1664996;86;25697;-59
2022/06/29 05:40:13;;;;;;;11.28;10.13;;;;;;;22.30;76.27;98666.46;1665086;85;25747;-58
2022/06/29 05:42:40;;;;;;;11.20;9.33;;;;;;;22.31;75.69;98673.63;1665359;86;25494;-59
2022/06/29 05:45:08;;;;;;;13.13;10.65;;;;;;;22.40;75.55;98675.27;1665198;86;27798;-59
2022/06/29 05:47:34;;;;;;;11.97;10.15;;;;;;;22.43;74.56;98678.05;1665305;86;25691;-58
2022/06/29 05:50:01;;;;;;;13.03;10.53;;;;;;;22.38;75.18;98681.24;1665315;86;25500;-58
2022/06/29 05:52:28;;;;;;;12.10;9.78;;;;;;;22.48;74.69;98685.86;1665334;86;25692;-59
2022/06/29 05:54:57;;;;;;;13.48;10.43;;;;;;;22.52;74.83;98690.85;1665305;85;25705;-58
2022/06/29 05:57:23;;;;;;;12.43;10.65;;;;;;;22.58;74.97;98687.07;1665048;86;27096;-58
2022/06/29 05:59:50;;;;;;;11.63;10.48;;;;;;;22.78;74.70;98681.97;1664997;86;25737;-57
2022/06/29 06:02:17;;;;;;;11.88;10.20;;;;;;;22.99;74.48;98681.19;1665197;86;25625;-57
2022/06/29 06:04:43;;;;;;;11.65;10.35;;;;;;;23.12;72.54;98680.21;1665384;86;25754;-57
2022/06/29 06:07:10;;;;;;;14.43;9.93;;;;;;;23.22;72.62;98687.58;1665004;86;25607;-59
2022/06/29 06:09:37;;;;;;;11.95;10.43;;;;;;;23.30;72.63;98687.20;1665015;86;27528;-57
2022/06/29 06:12:05;;;;;;;11.25;9.63;;;;;;;23.26;71.72;98692.59;1665195;86;25682;-58
2022/06/29 06:14:31;;;;;;;11.48;9.93;;;;;;;23.28;71.98;98681.78;1665337;86;25730;-58
2022/06/29 06:16:58;;;;;;;10.88;8.68;;;;;;;23.39;71.49;98679.83;1664952;85;25785;-58
2022/06/29 06:19:25;;;;;;;12.73;10.50;;;;;;;23.44;71.19;98675.83;1665199;85;25731;-59
2022/06/29 06:21:52;;;;;;;12.95;9.83;;;;;;;23.51;71.06;98684.20;1665140;86;27373;-58
2022/06/29 06:24:18;;;;;;;12.25;9.95;;;;;;;23.48;70.59;98693.39;1665219;85;25733;-59
2022/06/29 06:26:45;;;;;;;12.68;9.93;;;;;;;23.55;71.09;98686.38;1665125;86;25681;-60
2022/06/29 06:29:11;;;;;;;11.55;10.35;;;;;;;23.81;70.88;98684.95;1665421;85;25816;-59
2022/06/29 06:31:38;;;;;;;11.80;10.50;;;;;;;23.85;70.08;98692.73;1665443;85;25624;-60
2022/06/29 06:34:05;;;;;;;11.03;9.93;;;;;;;23.98;69.65;98694.51;1664993;86;27598;-57
2022/06/29 06:36:32;;;;;;;11.75;10.00;;;;;;;24.12;69.03;98688.03;1664979;85;25614;-58
2022/06/29 06:38:58;;;;;;;11.10;10.00;;;;;;;24.27;68.53;98692.22;1665498;86;25606;-58
2022/06/29 06:41:25;;;;;;;12.25;10.08;;;;;;;24.43;67.95;98695.94;1665244;86;25757;-58
2022/06/29 06:43:58;;;;;;;11.80;10.25;;;;;;;24.54;67.81;98692.49;1665350;86;25650;-58
2022/06/29 06:46:25;;;;;;;10.85;9.70;;;;;;;24.59;67.55;98687.66;1665283;86;27403;-56
2022/06/29 06:48:53;;;;;;;10.55;9.43;;;;;;;24.77;68.11;98689.75;1665004;86;25493;-58
2022/06/29 06:51:22;;;;;;;11.20;10.10;;;;;;;25.07;66.50;98691.77;1665151;86;25919;-59
2022/06/29 06:53:49;;;;;;;10.95;9.85;;;;;;;25.38;65.88;98696.72;1665390;85;25918;-59
2022/06/29 06:56:16;;;;;;;11.63;9.88;;;;;;;25.60;65.41;98694.56;1665032;86;25633;-59
2022/06/29 06:58:43;;;;;;;10.43;9.25;;;;;;;25.72;64.16;98695.23;1665276;86;27540;-59
2022/06/29 07:01:12;;;;;;;11.12;9.60;;;;;;;25.72;63.51;98682.60;1665152;85;25452;-58
2022/06/29 07:03:39;;;;;;;10.82;9.70;;;;;;;25.77;63.28;98682.97;1665107;86;25773;-58
2022/06/29 07:06:09;;;;;;;10.95;9.88;;;;;;;25.79;62.83;98676.94;1665027;85;25805;-58
2022/06/29 07:08:38;;;;;;;11.03;9.93;;;;;;;25.82;63.79;98677.50;1665428;86;25714;-57
2022/06/29 07:11:07;;;;;;;10.88;9.78;;;;;;;25.87;62.97;98676.22;1665280;86;27345;-57
2022/06/29 07:13:34;;;;;;;11.53;10.03;;;;;;;26.11;63.00;98678.58;1665173;86;25721;-58
2022/06/29 07:16:03;;;;;;;12.23;9.93;;;;;;;26.31;62.36;98673.75;1665216;86;25823;-60
2022/06/29 07:18:31;;;;;;;10.35;9.35;;;;;;;26.43;61.33;98675.19;1665231;86;25847;-59
2022/06/29 07:20:58;;;;;;;10.72;9.65;;;;;;;26.56;62.02;98670.58;1665114;86;25646;-58
2022/06/29 07:23:25;;;;;;;10.35;9.33;;;;;;;26.70;60.83;98663.16;1665243;86;27510;-60
2022/06/29 07:25:51;;;;;;;10.68;9.65;;;;;;;26.83;60.92;98666.19;1665097;86;25789;-58
2022/06/29 07:28:18;;;;;;;10.68;9.23;;;;;;;27.02;59.51;98668.12;1665039;86;25678;-60
2022/06/29 07:30:45;;;;;;;10.15;9.10;;;;;;;26.91;59.88;98664.84;1664909;86;27817;-60
2022/06/29 07:33:11;;;;;;;11.03;9.43;;;;;;;26.87;60.16;98654.27;1665272;86;25452;-60
2022/06/29 07:35:38;;;;;;;11.33;9.63;;;;;;;26.97;60.33;98660.16;1667349;85;27646;-60
2022/06/29 07:38:06;;;;;;;10.40;9.40;;;;;;;27.18;59.09;98657.63;1649088;85;25519;-59
2022/06/29 07:40:34;;;;;;;10.75;9.35;;;;;;;27.18;59.56;98653.41;1676453;85;25658;-59
2022/06/29 07:43:00;;;;;;;10.30;9.23;;;;;;;27.34;58.30;98650.53;1676860;85;26341;-60
2022/06/29 07:45:27;;;;;;;10.05;8.75;;;;;;;27.52;58.36;98642.53;1676422;85;25770;-60
2022/06/29 07:47:53;;;;;;;9.93;8.50;;;;;;;27.59;56.78;98642.22;1676456;85;28262;-60
2022/06/29 07:50:20;;;;;;;10.78;9.60;;;;;;;27.64;56.45;98636.11;1676763;85;25601;-60
2022/06/29 07:52:47;;;;;;;9.98;9.08;;;;;;;27.42;56.85;98637.30;1676638;85;25641;-60
2022/06/29 07:55:14;;;;;;;9.65;8.78;;;;;;;27.63;57.58;98642.97;1676630;85;25956;-60
2022/06/29 07:57:41;;;;;;;10.20;9.18;;;;;;;27.89;56.75;98638.45;1676625;85;25500;-59
2022/06/29 08:00:09;;;;;;;10.03;9.03;;;;;;;28.02;56.68;98640.61;1676695;85;27580;-59
2022/06/29 08:02:36;;;;;;;12.03;8.83;;;;;;;28.18;57.06;98649.75;1676730;85;25460;-59
2022/06/29 08:05:03;;;;;;;9.80;8.80;;;;;;;28.49;56.16;98653.72;1676541;85;25535;-59
2022/06/29 08:07:30;;;;;;;8.88;8.08;;;;;;;28.67;54.84;98651.12;1676605;85;25734;-58
2022/06/29 08:09:57;;;;;;;9.58;8.63;;;;;;;28.72;53.76;98644.94;1676620;85;25777;-59
2022/06/29 08:12:24;;;;;;;9.00;8.20;;;;;;;28.55;54.28;98641.30;1676481;85;27498;-58
2022/06/29 08:14:50;;;;;;;9.38;8.20;;;;;;;28.64;53.77;98631.63;1676450;85;25649;-59
2022/06/29 08:17:18;;;;;;;9.43;8.48;;;;;;;28.73;53.83;98631.04;1676506;85;25753;-58
2022/06/29 08:19:44;;;;;;;9.38;8.40;;;;;;;28.79;53.62;98622.84;1676805;85;25786;-61
2022/06/29 08:22:12;;;;;;;8.63;7.90;;;;;;;28.99;53.05;98624.80;1677069;85;25671;-57
2022/06/29 08:24:38;;;;;;;9.13;8.33;;;;;;;28.83;53.26;98624.95;1676769;85;27599;-56
2022/06/29 08:27:05;;;;;;;10.13;7.95;;;;;;;28.74;53.33;98629.80;1676366;85;25694;-57
2022/06/29 08:29:31;;;;;;;8.88;8.08;;;;;;;28.81;52.46;98617.53;1676858;85;25455;-57
2022/06/29 08:31:58;;;;;;;10.08;8.18;;;;;;;28.92;53.33;98615.86;1676487;85;25824;-56
2022/06/29 08:34:32;;;;;;;9.48;8.48;;;;;;;29.15;52.19;98614.91;1676787;85;25741;-56
2022/06/29 08:36:53;;;;;;;8.85;8.08;;;;;;;29.09;53.10;98619.50;1675934;85;26843;-56
2022/06/29 08:39:20;;;;;;;8.65;7.85;;;;;;;29.34;52.01;98622.30;1677008;85;25640;-57
2022/06/29 08:41:48;;;;;;;8.58;7.78;;;;;;;29.72;52.53;98615.24;1676579;85;25469;-57
2022/06/29 08:44:17;;;;;;;8.95;8.05;;;;;;;29.86;50.33;98615.45;1676867;85;25762;-57
2022/06/29 08:46:44;;;;;;;8.65;7.85;;;;;;;30.01;50.70;98617.23;1677023;85;25500;-57
2022/06/29 08:49:10;;;;;;;8.28;7.53;;;;;;;30.19;50.25;98618.75;1676541;85;27447;-57
2022/06/29 08:51:37;;;;;;;8.15;7.37;;;;;;;30.33;50.43;98611.11;1676533;85;26120;-59
2022/06/29 08:54:06;;;;;;;8.35;7.65;;;;;;;30.63;50.35;98606.92;1676646;85;25447;-57
2022/06/29 08:56:34;;;;;;;8.03;7.28;;;;;;;30.76;48.51;98597.00;1649826;85;25655;-56
2022/06/29 08:59:03;;;;;;;8.93;8.00;;;;;;;30.59;48.21;98601.21;1677003;85;25641;-58
2022/06/29 09:01:30;;;;;;;8.00;7.30;;;;;;;30.30;48.97;98593.80;1677130;85;28034;-57
2022/06/29 09:03:57;;;;;;;7.78;7.10;;;;;;;30.11;49.00;98588.51;1676442;85;25758;-57
2022/06/29 09:06:25;;;;;;;7.90;7.12;;;;;;;30.47;48.42;98584.39;1676565;85;25700;-56
2022/06/29 09:08:51;;;;;;;8.80;7.70;;;;;;;30.53;49.12;98587.62;1676439;85;25680;-58
2022/06/29 09:11:26;;;;;;;7.22;6.62;;;;;;;30.52;48.23;98583.23;1676746;85;25640;-57
2022/06/29 09:14:14;;;;;;;8.20;7.28;;;;;;;30.61;48.11;98585.98;1676364;85;27651;-58
2022/06/29 09:16:57;;;;;;;7.72;7.00;;;;;;;31.01;47.61;98579.84;1676430;85;25677;-58
2022/06/29 09:19:41;;;;;;;7.97;7.28;;;;;;;31.11;46.78;98574.27;1676563;85;25503;-58
2022/06/29 09:22:09;;;;;;;8.00;7.20;;;;;;;31.27;47.13;98582.59;1676621;85;25754;-58
2022/06/29 09:24:36;;;;;;;8.25;7.45;;;;;;;31.46;46.86;98581.36;1676802;85;25710;-58
2022/06/29 09:27:06;;;;;;;8.00;7.22;;;;;;;31.49;47.47;98584.66;1676691;85;27378;-59
2022/06/29 09:29:39;;;;;;;8.55;7.65;;;;;;;31.59;47.39;98586.14;1676460;85;43282;-58
2022/06/29 09:32:09;;;;;;;8.03;7.30;;;;;;;32.11;46.95;98593.74;1676943;85;25500;-59
2022/06/29 09:34:47;;;;;;;7.62;6.83;;;;;;;32.70;45.98;98582.97;1676619;85;25795;-59
2022/06/29 09:37:17;;;;;;;7.45;6.72;;;;;;;32.95;45.79;98583.97;1678233;85;25451;-58
2022/06/29 09:39:53;;;;;;;8.10;6.77;;;;;;;32.76;43.92;98573.38;1680044;85;27451;-58
2022/06/29 09:42:25;;;;;;;9.53;7.30;;;;;;;32.76;43.92;98573.38;1679844;85;25707;-57
2022/06/29 09:44:52;;;;;;;7.80;7.10;;;;;;;32.73;43.49;98578.58;1678707;85;25623;-58
2022/06/29 10:03:07;;;;;;;7.72;7.12;;;;;;;34.83;39.95;98582.38;1816006;79;25445;-66
2022/06/29 10:08:17;;;;;;;7.78;7.00;;;;;;;34.50;39.64;98581.10;1767675;78;25472;-65
2022/06/29 10:10:47;;;;;;;8.33;7.03;;;;;;;34.26;39.29;98576.79;1731314;81;25719;-62
2022/06/29 10:13:42;;;;;;;7.65;6.50;;;;;;;34.34;41.15;98580.08;1712940;83;25738;-63
2022/06/29 10:16:45;;;;;;;7.65;6.83;;;;;;;34.91;40.49;98572.84;1713236;83;25648;-63
2022/06/29 10:19:47;;;;;;;7.58;6.95;;;;;;;35.13;38.85;98568.24;1729605;82;27509;-62
2022/06/29 10:22:14;;;;;;;6.65;6.05;;;;;;;35.24;39.44;98569.77;1712561;83;25662;-62
2022/06/29 10:25:03;;;;;;;9.55;6.67;;;;;;;35.21;39.66;98570.11;1731059;82;25438;-64
2022/06/29 10:27:29;;;;;;;7.30;6.60;;;;;;;35.56;37.96;98569.31;1731602;82;25726;-64
2022/06/29 10:30:22;;;;;;;7.10;6.50;;;;;;;35.23;38.65;98571.81;1713530;83;25658;-64
2022/06/29 10:32:50;;;;;;;6.75;6.17;;;;;;;35.43;39.20;98572.46;1731386;82;27372;-65
2022/06/29 10:35:18;;;;;;;6.83;6.15;;;;;;;36.11;38.34;98566.55;1731028;82;25486;-65
2022/06/29 10:37:53;;;;;;;8.33;6.87;;;;;;;36.62;38.07;98561.48;1731148;82;25384;-65
2022/06/29 10:40:27;;;;;;;7.00;6.40;;;;;;;37.08;37.69;98559.23;1731261;82;25680;-66
2022/06/29 10:43:20;;;;;;;7.35;6.28;;;;;;;37.37;37.66;98561.80;1730925;82;25659;-64
2022/06/29 10:45:50;;;;;;;7.75;6.70;;;;;;;37.81;37.31;98555.63;1730906;82;27660;-66
2022/06/29 10:48:20;;;;;;;7.33;6.62;;;;;;;37.56;35.60;98548.62;1712931;83;25576;-66
2022/06/29 10:51:17;;;;;;;7.08;6.37;;;;;;;37.59;36.33;98546.19;1731041;82;25461;-66
2022/06/29 10:53:43;;;;;;;6.62;6.12;;;;;;;37.32;34.70;98540.45;1731151;82;25919;-66
2022/06/29 10:56:09;;;;;;;6.72;6.03;;;;;;;37.23;37.20;98539.98;1731396;82;25636;-66
2022/06/29 10:58:35;;;;;;;7.37;6.30;;;;;;;37.35;36.03;98540.08;1731319;82;27506;-63
2022/06/29 11:01:01;;;;;;;6.53;5.92;;;;;;;37.55;35.90;98539.25;1731230;82;25480;-67
2022/06/29 11:03:29;;;;;;;6.72;5.95;;;;;;;37.67;35.36;98544.42;1710329;82;25479;-67
2022/06/29 11:16:54;;;;;;;6.87;6.28;;;;;;;37.72;34.95;98538.65;1705936;83;25744;-63
2022/06/29 11:19:31;;;;;;;6.62;5.97;;;;;;;38.18;34.48;98537.61;1687653;85;25493;-66
2022/06/29 11:22:18;;;;;;;6.70;5.97;;;;;;;38.45;33.47;98544.80;1705880;84;25736;-66
2022/06/29 11:25:00;;;;;;;7.00;6.30;;;;;;;38.81;31.94;98538.78;1688076;85;28110;-66
2022/06/29 11:27:33;;;;;;;6.30;5.75;;;;;;;38.52;33.80;98538.63;1705487;84;25560;-67
2022/06/29 11:29:59;;;;;;;6.33;5.72;;;;;;;38.68;33.85;98533.50;1687893;85;25844;-65
2022/06/29 11:32:39;;;;;;;6.42;5.80;;;;;;;38.74;34.20;98531.45;1705500;84;25661;-65
2022/06/29 11:35:07;;;;;;;5.95;5.45;;;;;;;38.81;33.87;98531.63;1688012;85;25865;-65
2022/06/29 11:37:33;;;;;;;5.90;5.22;;;;;;;38.84;33.32;98530.59;1705907;84;32598;-62
2022/06/29 11:40:00;;;;;;;6.05;5.55;;;;;;;38.99;33.26;98530.39;1688036;85;25665;-65
2022/06/29 11:45:19;;;;;;;6.90;5.45;;;;;;;39.73;33.01;98527.58;1687916;85;25555;-65
2022/06/29 11:47:55;;;;;;;5.92;5.42;;;;;;;39.69;30.72;98527.86;1705802;84;25546;-65
2022/06/29 11:50:22;;;;;;;7.15;5.70;;;;;;;39.38;31.11;98527.53;1687944;85;28338;-64
2022/06/29 11:52:51;;;;;;;6.33;5.47;;;;;;;39.40;31.12;98517.75;1708368;83;25750;-65
2022/06/29 11:55:42;;;;;;;5.62;5.15;;;;;;;39.42;32.48;98512.16;1726100;82;25651;-65
2022/06/29 11:58:18;;;;;;;5.70;5.30;;;;;;;39.51;32.39;98513.33;1725465;83;25960;-60
2022/06/29 12:00:45;;;;;;;6.75;5.08;;;;;;;39.84;33.07;98513.89;1725800;83;25595;-66
2022/06/29 12:03:15;;;;;;;5.70;5.20;;;;;;;39.67;32.47;98506.72;1725702;83;27480;-64
2022/06/29 12:05:59;;;;;;;5.87;5.00;;;;;;;39.68;31.32;98509.07;1725963;82;25676;-66
2022/06/29 12:08:30;;;;;;;6.03;5.12;;;;;;;39.79;31.85;98503.98;1728938;81;25638;-66